Time;durP1;ratioP1;P1;durP2;ratioP2;P2;SDS_P1;SDS_P2;PMS_P1;PMS_P2;Temp;Humidity;BMP_temperature;BMP_pressure;BME280_temperature;BME280_humidity;BME280_pressure;Samples;Min_cycle;Max_cycle;Signal;HPM_P1;HPM_P2
2022/05/05 00:00:51;;;;;;;5.88;2.88;;;9.00;96.40;;;;;;4994860;28;20032;-71
2022/05/05 00:03:17;;;;;;;4.68;2.75;;;9.00;96.50;;;;;;5014692;28;20416;-72
2022/05/05 00:05:42;;;;;;;15.95;3.35;;;9.00;96.70;;;;;;5033987;28;20489;-73
2022/05/05 00:08:09;;;;;;;5.15;2.95;;;9.00;97.10;;;;;;4997597;28;20032;-72
2022/05/05 00:16:05;;;;;;;5.82;3.40;;;8.80;97.40;;;;;;5033141;28;20040;-73
2022/05/05 00:18:31;;;;;;;4.95;3.13;;;8.80;97.60;;;;;;5014190;28;20082;-71
2022/05/05 00:20:57;;;;;;;7.55;3.58;;;8.80;97.70;;;;;;5014738;28;20017;-72
2022/05/05 00:23:22;;;;;;;5.45;3.20;;;8.80;97.90;;;;;;5012770;28;20083;-71
2022/05/05 00:25:48;;;;;;;6.78;2.70;;;8.80;97.80;;;;;;5029141;28;20025;-73
2022/05/05 00:28:14;;;;;;;4.53;3.10;;;8.80;98.00;;;;;;5014365;28;20182;-73
2022/05/05 00:30:39;;;;;;;6.28;2.97;;;8.70;98.10;;;;;;5028031;28;20086;-71
2022/05/05 00:33:05;;;;;;;4.90;3.03;;;8.70;98.20;;;;;;5031291;28;20408;-71
2022/05/05 00:35:30;;;;;;;7.38;3.88;;;8.70;98.20;;;;;;5014556;28;20628;-71
2022/05/05 00:37:57;;;;;;;7.45;3.55;;;8.70;98.40;;;;;;5015767;28;20036;-71
2022/05/05 00:40:22;;;;;;;8.25;3.30;;;8.70;98.50;;;;;;5018811;28;20109;-71
2022/05/05 00:42:48;;;;;;;6.05;2.92;;;8.70;98.50;;;;;;5016959;28;20132;-71
2022/05/05 00:45:15;;;;;;;11.73;3.40;;;8.60;98.80;;;;;;5034444;28;20044;-71
2022/05/05 00:47:41;;;;;;;7.15;3.70;;;8.60;98.80;;;;;;5016977;28;20115;-71
2022/05/05 00:50:07;;;;;;;7.78;3.55;;;8.60;99.00;;;;;;5014658;28;20041;-71
2022/05/05 00:52:33;;;;;;;6.45;3.30;;;8.60;99.30;;;;;;5016777;28;20152;-71
2022/05/05 00:55:01;;;;;;;5.30;3.35;;;8.50;99.10;;;;;;5033172;28;20104;-72
2022/05/05 00:57:28;;;;;;;6.30;3.10;;;8.50;99.30;;;;;;5018979;28;20038;-73
2022/05/05 00:59:55;;;;;;;7.85;3.40;;;8.40;99.40;;;;;;5035038;28;20540;-73
2022/05/05 01:02:21;;;;;;;7.63;3.95;;;8.40;99.40;;;;;;5014508;28;20039;-73
2022/05/05 01:04:47;;;;;;;5.68;3.65;;;8.40;99.70;;;;;;5012753;28;20129;-71
2022/05/05 01:07:15;;;;;;;6.18;3.38;;;8.40;99.90;;;;;;5012851;28;20150;-71
2022/05/05 01:09:41;;;;;;;5.53;3.20;;;8.40;99.90;;;;;;5031221;28;20072;-71
2022/05/05 01:12:08;;;;;;;6.80;3.10;;;8.30;99.90;;;;;;5017018;28;20065;-73
2022/05/05 01:14:34;;;;;;;7.50;3.85;;;8.30;99.90;;;;;;4997470;28;20037;-73
2022/05/05 01:17:00;;;;;;;5.82;3.33;;;8.30;99.90;;;;;;5019852;28;20462;-73
2022/05/05 01:19:26;;;;;;;6.78;3.50;;;8.20;99.90;;;;;;5034994;28;20277;-72
2022/05/05 01:21:55;;;;;;;8.38;3.50;;;8.20;99.90;;;;;;5011991;28;20037;-71
2022/05/05 01:29:55;;;;;;;7.18;3.50;;;8.20;99.90;;;;;;5032517;28;20033;-70
2022/05/05 01:32:21;;;;;;;6.32;3.80;;;8.10;99.90;;;;;;5033098;28;20079;-72
2022/05/05 01:34:47;;;;;;;7.28;3.35;;;8.10;99.90;;;;;;5015516;28;20467;-70
2022/05/05 01:37:13;;;;;;;8.45;3.95;;;8.10;99.90;;;;;;5034728;28;20112;-70
2022/05/05 01:39:38;;;;;;;6.35;3.70;;;8.10;99.90;;;;;;5011775;28;20026;-70
2022/05/05 01:42:05;;;;;;;6.50;3.50;;;8.10;99.90;;;;;;5034114;28;20095;-70
2022/05/05 01:44:31;;;;;;;8.20;4.00;;;8.00;99.90;;;;;;5031523;28;20025;-70
2022/05/05 01:46:56;;;;;;;10.02;3.90;;;8.00;99.90;;;;;;5033798;28;20033;-70
2022/05/05 01:49:24;;;;;;;6.07;3.53;;;8.00;99.90;;;;;;5013916;28;20116;-73
2022/05/05 01:51:50;;;;;;;7.03;3.63;;;8.00;99.90;;;;;;5034567;28;20024;-70
2022/05/05 01:54:15;;;;;;;6.38;3.80;;;7.90;99.90;;;;;;5014815;28;20346;-71
2022/05/05 01:56:41;;;;;;;6.05;4.00;;;7.90;99.90;;;;;;5017527;28;20473;-70
2022/05/05 01:59:06;;;;;;;6.88;3.75;;;7.90;99.90;;;;;;5031850;28;20029;-71
2022/05/05 02:01:33;;;;;;;6.38;4.07;;;7.90;99.90;;;;;;5031129;28;20485;-72
2022/05/05 02:04:00;;;;;;;5.00;3.97;;;7.90;99.90;;;;;;5030314;28;20033;-72
2022/05/05 02:06:26;;;;;;;9.40;3.97;;;7.80;99.90;;;;;;4993586;28;20100;-72
2022/05/05 02:08:52;;;;;;;7.53;4.03;;;7.80;99.90;;;;;;5025623;28;20486;-72
2022/05/05 02:11:18;;;;;;;8.07;4.15;;;7.80;99.90;;;;;;5007159;28;20121;-71
2022/05/05 02:13:44;;;;;;;9.98;4.43;;;7.80;99.90;;;;;;5014774;28;20026;-70
2022/05/05 02:16:10;;;;;;;5.57;3.67;;;7.80;99.90;;;;;;5033922;28;20037;-71
2022/05/05 02:18:35;;;;;;;6.97;4.10;;;7.80;99.90;;;;;;5012501;28;20409;-72
2022/05/05 02:21:01;;;;;;;7.90;4.18;;;7.70;99.90;;;;;;4999089;28;20490;-71
2022/05/05 02:23:27;;;;;;;6.88;4.00;;;7.70;99.90;;;;;;5016316;28;20091;-71
2022/05/05 02:25:53;;;;;;;7.63;3.75;;;7.70;99.90;;;;;;5030986;28;20064;-71
2022/05/05 02:28:19;;;;;;;6.70;3.83;;;7.70;99.90;;;;;;5030979;28;20030;-70
2022/05/05 02:30:45;;;;;;;7.45;3.78;;;7.60;99.90;;;;;;5031190;28;20509;-71
2022/05/05 02:33:11;;;;;;;6.57;4.10;;;7.60;99.90;;;;;;5016884;28;20064;-72
2022/05/05 02:35:37;;;;;;;5.97;3.30;;;7.50;99.90;;;;;;5015847;28;20030;-72
2022/05/05 02:40:48;;;;;;;7.63;4.35;;;7.50;99.90;;;;;;5034923;28;20042;-72
2022/05/05 02:43:15;;;;;;;7.47;4.28;;;7.50;99.90;;;;;;5035307;28;20223;-72
2022/05/05 02:45:40;;;;;;;7.85;3.92;;;7.50;99.90;;;;;;5033871;28;20129;-71
2022/05/05 02:48:07;;;;;;;7.80;4.13;;;7.50;99.90;;;;;;5034353;28;20131;-72
2022/05/05 02:50:32;;;;;;;6.60;3.40;;;7.40;99.90;;;;;;4996432;28;20025;-71
2022/05/05 02:52:59;;;;;;;6.25;3.33;;;7.40;99.90;;;;;;5034516;28;20040;-72
2022/05/05 02:55:25;;;;;;;6.03;3.72;;;7.40;99.90;;;;;;5014279;28;20033;-73
2022/05/05 02:57:51;;;;;;;4.15;3.72;;;7.40;99.90;;;;;;5013147;28;20033;-72
2022/05/05 03:00:18;;;;;;;7.53;4.00;;;7.40;99.90;;;;;;4994788;28;20454;-72
2022/05/05 03:02:44;;;;;;;7.40;3.78;;;7.30;99.90;;;;;;5014888;28;20072;-71
2022/05/05 03:05:13;;;;;;;6.15;4.00;;;7.30;99.90;;;;;;5033827;28;20047;-72
2022/05/05 03:07:41;;;;;;;9.35;4.63;;;7.20;99.90;;;;;;5017266;28;20029;-73
2022/05/05 03:10:07;;;;;;;8.75;4.07;;;7.20;99.90;;;;;;5012569;28;20045;-73
2022/05/05 03:12:33;;;;;;;7.60;4.20;;;7.20;99.90;;;;;;5036153;28;20043;-73
2022/05/05 03:14:59;;;;;;;6.35;4.30;;;7.10;99.90;;;;;;5012924;28;20021;-72
2022/05/05 03:17:24;;;;;;;6.15;3.80;;;7.10;99.90;;;;;;5013175;28;20025;-73
2022/05/05 03:19:50;;;;;;;8.93;3.83;;;7.10;99.90;;;;;;5030912;28;20401;-70
2022/05/05 03:22:16;;;;;;;8.45;4.10;;;7.10;99.90;;;;;;5034933;28;20037;-70
2022/05/05 03:24:41;;;;;;;6.85;4.72;;;7.10;99.90;;;;;;5030057;28;20071;-73
2022/05/05 03:27:07;;;;;;;7.45;4.70;;;7.10;99.90;;;;;;5012747;28;20609;-73
2022/05/05 03:29:33;;;;;;;5.10;4.35;;;7.20;99.90;;;;;;5029544;28;20392;-72
2022/05/05 03:31:58;;;;;;;6.07;4.03;;;7.10;99.90;;;;;;5012334;28;20057;-73
2022/05/05 03:34:24;;;;;;;12.10;5.18;;;7.20;99.90;;;;;;5014536;28;20324;-73
2022/05/05 03:36:50;;;;;;;7.47;4.55;;;7.10;99.90;;;;;;5032077;28;20033;-73
2022/05/05 03:39:15;;;;;;;8.45;4.90;;;7.10;99.90;;;;;;5016795;28;20021;-71
2022/05/05 03:41:41;;;;;;;6.25;4.20;;;7.10;99.90;;;;;;5032807;28;20489;-72
2022/05/05 03:44:07;;;;;;;10.65;4.32;;;7.00;99.90;;;;;;5012872;28;20060;-72
2022/05/05 03:46:35;;;;;;;7.00;4.45;;;6.90;99.90;;;;;;4999267;28;20087;-72
2022/05/05 03:49:00;;;;;;;8.70;4.80;;;6.90;99.90;;;;;;5027257;28;20057;-72
2022/05/05 03:51:26;;;;;;;7.65;4.80;;;6.90;99.90;;;;;;5014866;28;20073;-72
2022/05/05 03:53:55;;;;;;;6.75;4.63;;;6.90;99.90;;;;;;5032764;28;20521;-72
2022/05/05 03:56:22;;;;;;;8.35;4.95;;;7.00;99.90;;;;;;5016491;28;20026;-72
2022/05/05 03:58:47;;;;;;;8.15;4.40;;;7.00;99.90;;;;;;5015484;28;20045;-72
2022/05/05 04:01:13;;;;;;;6.43;5.00;;;7.00;99.90;;;;;;5014789;28;20662;-72
2022/05/05 04:03:43;;;;;;;8.27;4.53;;;7.00;99.90;;;;;;5032775;28;20021;-71
2022/05/05 04:06:09;;;;;;;8.35;4.57;;;7.10;99.90;;;;;;5033858;28;20381;-73
2022/05/05 04:08:37;;;;;;;7.13;4.72;;;7.10;99.90;;;;;;5014806;28;20185;-71
2022/05/05 04:11:07;;;;;;;8.27;5.10;;;7.10;99.90;;;;;;5030065;28;20049;-72
2022/05/05 04:13:33;;;;;;;10.02;4.97;;;7.10;99.90;;;;;;5011672;28;20037;-73
2022/05/05 04:15:59;;;;;;;6.30;4.90;;;7.10;99.90;;;;;;5028879;28;20026;-73
2022/05/05 04:18:25;;;;;;;7.03;5.25;;;7.10;99.90;;;;;;5031116;28;20036;-72
2022/05/05 04:20:50;;;;;;;7.72;4.82;;;7.20;99.90;;;;;;5028926;28;20025;-71
2022/05/05 04:23:16;;;;;;;6.88;5.10;;;7.20;99.90;;;;;;5032677;28;20421;-73
2022/05/05 04:25:43;;;;;;;7.15;4.68;;;7.20;99.90;;;;;;5034418;28;20116;-73
2022/05/05 04:28:10;;;;;;;9.93;5.63;;;7.30;99.90;;;;;;5014585;28;20045;-71
2022/05/05 04:30:37;;;;;;;7.07;5.82;;;7.30;99.90;;;;;;5005653;28;20034;-74
2022/05/05 04:33:05;;;;;;;12.88;5.55;;;7.30;99.90;;;;;;5015360;28;20081;-71
2022/05/05 04:35:30;;;;;;;9.70;5.70;;;7.40;99.90;;;;;;5010952;28;20119;-73
2022/05/05 04:37:57;;;;;;;13.43;5.10;;;7.40;99.90;;;;;;5029148;28;20092;-71
2022/05/05 04:40:23;;;;;;;9.60;5.45;;;7.50;99.90;;;;;;5024628;28;20049;-73
2022/05/05 04:42:49;;;;;;;9.93;5.10;;;7.50;99.90;;;;;;5009994;28;20079;-74
2022/05/05 04:45:15;;;;;;;8.73;5.50;;;7.60;99.90;;;;;;5000572;28;20025;-71
2022/05/05 04:47:40;;;;;;;7.95;4.80;;;7.60;99.90;;;;;;5030543;28;20513;-71
2022/05/05 04:50:07;;;;;;;7.75;5.03;;;7.60;99.90;;;;;;5032637;28;20614;-71
2022/05/05 04:52:32;;;;;;;8.57;4.82;;;7.80;99.90;;;;;;5026664;28;20033;-74
2022/05/05 04:54:59;;;;;;;7.95;4.78;;;7.80;99.90;;;;;;5013035;28;20033;-73
2022/05/05 04:57:24;;;;;;;6.45;4.57;;;7.90;99.90;;;;;;5025665;28;20533;-71
2022/05/05 04:59:50;;;;;;;9.45;5.18;;;7.90;99.90;;;;;;5008381;28;20111;-72
2022/05/05 05:02:17;;;;;;;8.90;4.55;;;8.00;99.90;;;;;;5027623;28;20035;-75
2022/05/05 05:04:43;;;;;;;8.40;4.72;;;8.50;99.90;;;;;;5008662;28;20037;-73
2022/05/05 05:07:08;;;;;;;7.28;4.20;;;8.80;99.90;;;;;;5024320;28;20121;-71
2022/05/05 05:09:37;;;;;;;7.85;4.15;;;8.80;99.90;;;;;;5008828;28;20038;-72
2022/05/05 05:12:04;;;;;;;15.68;5.25;;;8.80;99.90;;;;;;4999670;28;20034;-73
2022/05/05 05:14:29;;;;;;;15.73;4.13;;;9.00;99.90;;;;;;5007974;28;20614;-71
2022/05/05 05:16:55;;;;;;;12.48;5.40;;;8.90;99.90;;;;;;5010200;28;20102;-71
2022/05/05 05:19:21;;;;;;;11.85;4.75;;;8.90;99.90;;;;;;5011964;28;20473;-71
2022/05/05 05:21:47;;;;;;;6.63;4.32;;;8.90;99.90;;;;;;5006774;28;20461;-72
2022/05/05 05:24:13;;;;;;;8.82;4.57;;;8.80;99.90;;;;;;5014322;28;20043;-73
2022/05/05 05:26:39;;;;;;;10.60;4.75;;;8.80;99.90;;;;;;4998026;28;20032;-73
2022/05/05 05:29:05;;;;;;;5.88;3.90;;;8.70;99.90;;;;;;5031678;28;20030;-72
2022/05/05 05:31:31;;;;;;;6.90;4.18;;;8.70;99.90;;;;;;5032307;28;20026;-72
2022/05/05 05:33:57;;;;;;;7.68;3.80;;;8.70;99.90;;;;;;4998645;28;20041;-71
2022/05/05 05:36:23;;;;;;;7.05;3.67;;;8.80;99.90;;;;;;5034691;28;20052;-72
2022/05/05 05:38:49;;;;;;;10.05;3.60;;;8.80;99.90;;;;;;5033987;28;20057;-71
2022/05/05 05:41:14;;;;;;;4.90;3.22;;;8.80;99.90;;;;;;5013523;28;20490;-72
2022/05/05 05:43:40;;;;;;;9.75;4.22;;;8.80;99.90;;;;;;5013161;28;20484;-72
2022/05/05 05:46:06;;;;;;;7.70;3.70;;;8.90;99.90;;;;;;5030419;28;20030;-71
2022/05/05 05:48:32;;;;;;;4.70;3.35;;;9.00;99.90;;;;;;5035663;28;20025;-71
2022/05/05 05:50:57;;;;;;;8.50;3.53;;;9.10;99.90;;;;;;5016466;28;20056;-72
2022/05/05 05:53:23;;;;;;;8.90;3.47;;;9.10;99.90;;;;;;5012475;28;20033;-72
2022/05/05 05:55:49;;;;;;;12.15;3.63;;;9.10;99.90;;;;;;5011421;28;20030;-74
2022/05/05 05:58:14;;;;;;;5.22;3.40;;;9.20;99.90;;;;;;5030220;28;20128;-73
2022/05/05 06:00:40;;;;;;;9.23;3.38;;;9.20;99.90;;;;;;5033452;28;20034;-71
2022/05/05 06:05:50;;;;;;;6.43;2.80;;;9.40;99.90;;;;;;5036246;28;20675;-71
2022/05/05 06:08:17;;;;;;;8.23;2.70;;;9.50;99.90;;;;;;5034525;28;20128;-71
2022/05/05 06:10:42;;;;;;;9.40;2.85;;;9.50;99.90;;;;;;5019797;28;20044;-73
2022/05/05 06:13:08;;;;;;;10.48;3.05;;;9.60;99.90;;;;;;5029202;28;20029;-73
2022/05/05 06:15:35;;;;;;;10.63;3.58;;;9.70;99.90;;;;;;5000243;28;20065;-75
2022/05/05 06:18:00;;;;;;;7.47;2.60;;;9.80;99.90;;;;;;5006462;28;20621;-75
2022/05/05 06:20:26;;;;;;;4.15;2.30;;;9.90;99.90;;;;;;4999617;28;20052;-75
2022/05/05 06:22:52;;;;;;;6.30;2.40;;;9.90;99.90;;;;;;5033610;28;20533;-73
2022/05/05 06:25:23;;;;;;;4.57;1.70;;;10.00;99.90;;;;;;5034006;28;20046;-72
2022/05/05 06:27:49;;;;;;;6.22;2.00;;;10.10;99.90;;;;;;5032678;28;20025;-73
2022/05/05 06:30:16;;;;;;;5.93;1.88;;;10.10;99.90;;;;;;5012355;28;20577;-74
2022/05/05 06:32:42;;;;;;;5.18;1.80;;;10.10;99.90;;;;;;5005123;28;20049;-73
2022/05/05 06:35:09;;;;;;;6.20;2.20;;;10.00;99.90;;;;;;5030391;28;20040;-73
2022/05/05 06:37:35;;;;;;;7.22;2.20;;;10.10;99.90;;;;;;5034922;28;20038;-73
2022/05/05 06:40:01;;;;;;;7.15;1.92;;;10.10;99.90;;;;;;5013295;28;20041;-74
2022/05/05 06:42:27;;;;;;;6.63;1.80;;;10.10;99.90;;;;;;5032835;28;20063;-74
2022/05/05 06:44:53;;;;;;;6.03;2.05;;;10.20;99.90;;;;;;5029393;28;20515;-74
2022/05/05 06:47:19;;;;;;;6.60;1.92;;;10.20;99.90;;;;;;5032082;28;20041;-75
2022/05/05 06:49:44;;;;;;;4.07;1.73;;;10.20;99.90;;;;;;5032206;28;20033;-74
2022/05/05 06:52:10;;;;;;;6.05;2.10;;;10.20;99.90;;;;;;5018137;28;20040;-73
2022/05/05 06:54:39;;;;;;;4.85;1.67;;;10.10;99.90;;;;;;5030288;28;20656;-74
2022/05/05 06:57:05;;;;;;;7.47;2.08;;;10.20;99.90;;;;;;5035026;28;20040;-74
2022/05/05 06:59:31;;;;;;;10.07;2.00;;;10.20;99.90;;;;;;5032474;28;20021;-73
2022/05/05 07:02:01;;;;;;;4.00;1.45;;;10.20;99.90;;;;;;5011887;28;20064;-73
2022/05/05 07:07:19;;;;;;;4.63;2.00;;;10.40;99.90;;;;;;5033382;28;20059;-72
2022/05/05 07:12:31;;;;;;;4.55;1.80;;;10.40;99.90;;;;;;5028898;28;20295;-72
2022/05/05 07:14:57;;;;;;;2.95;1.75;;;10.50;99.90;;;;;;5028654;28;20108;-72
2022/05/05 07:17:24;;;;;;;4.97;1.55;;;10.60;99.90;;;;;;5024274;28;20051;-72
2022/05/05 07:19:50;;;;;;;8.20;1.88;;;10.60;99.90;;;;;;5027408;28;20036;-73
2022/05/05 07:22:15;;;;;;;4.82;1.67;;;10.70;99.70;;;;;;5010644;28;20079;-72
2022/05/05 07:24:41;;;;;;;8.95;2.20;;;10.80;99.70;;;;;;5027782;28;20037;-72
2022/05/05 07:27:07;;;;;;;11.13;1.80;;;10.80;99.40;;;;;;5015371;28;20120;-72
2022/05/05 07:29:33;;;;;;;5.90;2.25;;;10.80;99.30;;;;;;5009775;28;20468;-72
2022/05/05 07:31:58;;;;;;;3.63;2.00;;;10.80;99.50;;;;;;5011124;28;20060;-72
2022/05/05 07:34:24;;;;;;;8.35;3.50;;;10.80;99.50;;;;;;5006477;28;20029;-72
2022/05/05 07:36:50;;;;;;;7.78;2.20;;;10.90;99.50;;;;;;5024603;28;20026;-72
2022/05/05 07:39:16;;;;;;;5.38;2.00;;;11.00;99.20;;;;;;5009190;28;20029;-73
2022/05/05 07:41:42;;;;;;;8.65;2.10;;;11.00;99.10;;;;;;5007920;28;20032;-72
2022/05/05 07:44:09;;;;;;;4.75;1.90;;;11.10;98.80;;;;;;5028525;28;20091;-72
2022/05/05 07:46:35;;;;;;;5.82;1.90;;;11.10;98.60;;;;;;5008655;28;20033;-72
2022/05/05 07:49:04;;;;;;;4.32;1.75;;;11.20;98.60;;;;;;5012068;28;20135;-73
2022/05/05 07:51:34;;;;;;;3.28;1.70;;;11.20;98.60;;;;;;5007947;28;20041;-73
2022/05/05 07:56:45;;;;;;;5.88;2.03;;;11.30;98.80;;;;;;5028775;28;20493;-72
2022/05/05 07:59:11;;;;;;;8.07;2.03;;;11.30;98.20;;;;;;5005910;28;21134;-72
2022/05/05 08:01:37;;;;;;;7.72;2.40;;;11.20;98.00;;;;;;5020913;28;20037;-72
2022/05/05 08:04:04;;;;;;;7.40;2.60;;;11.30;98.30;;;;;;5029079;28;20119;-72
2022/05/05 08:06:31;;;;;;;4.90;1.85;;;11.30;98.10;;;;;;5008620;28;20462;-73
2022/05/05 08:08:56;;;;;;;4.47;2.03;;;11.40;98.30;;;;;;5025156;28;20065;-72
2022/05/05 08:11:23;;;;;;;8.23;2.40;;;11.40;98.10;;;;;;4994275;28;20056;-72
2022/05/05 08:13:49;;;;;;;6.53;2.75;;;11.60;97.60;;;;;;5025523;28;20484;-72
2022/05/05 08:16:16;;;;;;;16.42;2.25;;;11.60;97.50;;;;;;5010321;28;20026;-72
2022/05/05 08:18:42;;;;;;;5.32;1.98;;;11.60;97.50;;;;;;5030708;28;20112;-72
2022/05/05 08:21:10;;;;;;;7.90;2.45;;;11.60;97.50;;;;;;5012460;28;20041;-73
2022/05/05 08:23:37;;;;;;;7.47;2.38;;;11.70;97.50;;;;;;4992031;28;20042;-72
2022/05/05 08:28:50;;;;;;;7.72;2.17;;;11.90;97.10;;;;;;5025243;28;20032;-73
2022/05/05 08:31:17;;;;;;;4.82;2.15;;;12.00;97.20;;;;;;5008763;28;20037;-73
2022/05/05 08:33:43;;;;;;;5.03;1.90;;;12.10;96.90;;;;;;5007884;28;20026;-72
2022/05/05 08:36:10;;;;;;;4.20;1.77;;;12.30;96.60;;;;;;4992933;28;20088;-73
2022/05/05 08:38:35;;;;;;;4.70;2.10;;;12.30;95.90;;;;;;5012077;28;20037;-74
2022/05/05 08:41:02;;;;;;;4.75;2.00;;;12.30;95.80;;;;;;5029483;28;20036;-74
2022/05/05 08:43:28;;;;;;;6.28;2.22;;;12.30;96.00;;;;;;5027643;28;20038;-74
2022/05/05 08:45:58;;;;;;;8.10;2.78;;;12.40;96.10;;;;;;5003304;28;20037;-74
2022/05/05 08:48:23;;;;;;;5.35;1.70;;;12.50;95.20;;;;;;5026998;28;20052;-73
2022/05/05 08:50:56;;;;;;;4.28;1.95;;;12.50;95.00;;;;;;5029477;28;20057;-72
2022/05/05 08:53:29;;;;;;;5.05;1.73;;;12.60;94.70;;;;;;5038284;28;20083;-73
2022/05/05 08:55:54;;;;;;;5.75;2.55;;;12.60;94.50;;;;;;5009003;28;20170;-74
2022/05/05 08:58:21;;;;;;;4.63;1.67;;;12.70;93.60;;;;;;5028272;28;21923;-74
2022/05/05 09:00:47;;;;;;;6.47;2.28;;;12.80;93.80;;;;;;5032481;28;20519;-74
2022/05/05 09:03:12;;;;;;;4.60;1.90;;;12.80;93.00;;;;;;5025360;28;20150;-73
2022/05/05 09:05:44;;;;;;;6.70;2.03;;;12.90;93.30;;;;;;5036873;28;20040;-73
2022/05/05 09:08:25;;;;;;;7.80;2.50;;;12.90;93.30;;;;;;5020288;28;20061;-73
2022/05/05 09:10:56;;;;;;;7.93;1.77;;;13.00;93.30;;;;;;5015014;28;20061;-75
2022/05/05 09:13:30;;;;;;;4.73;2.33;;;13.10;92.50;;;;;;5039796;28;20509;-74
2022/05/05 09:15:56;;;;;;;5.97;2.08;;;13.10;92.60;;;;;;5027152;28;20296;-74
2022/05/05 09:18:29;;;;;;;4.13;2.00;;;13.20;92.70;;;;;;5037832;28;20025;-73
2022/05/05 09:20:56;;;;;;;4.25;1.67;;;13.30;92.70;;;;;;5033535;28;20034;-73
2022/05/05 09:23:36;;;;;;;8.43;1.67;;;13.40;92.50;;;;;;5014326;28;20454;-74
2022/05/05 09:26:06;;;;;;;4.93;1.60;;;13.60;91.80;;;;;;5017349;28;20095;-74
2022/05/05 09:28:36;;;;;;;3.72;1.75;;;13.60;91.20;;;;;;5017560;28;20069;-74
2022/05/05 09:31:09;;;;;;;3.38;1.63;;;13.70;90.90;;;;;;5031541;28;20025;-74
2022/05/05 09:33:37;;;;;;;6.80;1.90;;;13.70;90.70;;;;;;5020021;28;20040;-72
2022/05/05 09:36:07;;;;;;;4.40;1.83;;;13.80;90.10;;;;;;5037163;28;20091;-74
2022/05/05 09:38:56;;;;;;;5.50;2.10;;;13.80;90.10;;;;;;5039184;28;20048;-74
2022/05/05 09:41:25;;;;;;;4.97;1.80;;;13.90;89.30;;;;;;5022091;28;20042;-74
2022/05/05 09:43:53;;;;;;;6.72;1.98;;;14.00;89.20;;;;;;5017544;28;20408;-74
2022/05/05 09:46:25;;;;;;;9.45;1.90;;;14.00;88.40;;;;;;5036409;28;20572;-74
2022/05/05 09:48:52;;;;;;;5.47;1.88;;;14.10;87.10;;;;;;5033857;28;20029;-74
2022/05/05 09:51:18;;;;;;;3.28;1.52;;;14.10;86.20;;;;;;5037418;28;20103;-74
2022/05/05 09:59:30;;;;;;;4.55;2.05;;;14.20;86.80;;;;;;4996865;28;20037;-75
2022/05/05 10:02:04;;;;;;;4.47;1.95;;;14.40;86.90;;;;;;5012122;28;20037;-74
2022/05/05 10:04:39;;;;;;;4.82;2.03;;;14.50;85.50;;;;;;5031643;28;20036;-75
2022/05/05 10:07:07;;;;;;;2.25;1.35;;;14.40;83.60;;;;;;5014414;28;20092;-74
2022/05/05 10:09:33;;;;;;;6.00;1.85;;;14.50;84.20;;;;;;5036150;28;20025;-77
2022/05/05 10:12:01;;;;;;;8.23;2.38;;;14.60;84.10;;;;;;5018755;28;20071;-73
2022/05/05 10:14:27;;;;;;;8.68;2.08;;;14.70;84.90;;;;;;5017308;28;20540;-74
2022/05/05 10:16:54;;;;;;;8.25;2.58;;;14.80;84.50;;;;;;5020601;28;20438;-75
2022/05/05 10:19:19;;;;;;;4.82;2.00;;;14.70;84.50;;;;;;5030813;28;20435;-74
2022/05/05 10:21:54;;;;;;;5.93;2.15;;;14.70;85.20;;;;;;5038083;28;20033;-75
2022/05/05 10:24:38;;;;;;;5.95;2.65;;;14.80;85.60;;;;;;5035896;28;20449;-73
2022/05/05 10:27:05;;;;;;;8.20;2.63;;;14.90;84.70;;;;;;5021709;28;20029;-73
2022/05/05 10:29:35;;;;;;;5.20;2.42;;;14.60;83.40;;;;;;5015672;28;20489;-73
2022/05/05 10:32:25;;;;;;;4.43;2.60;;;14.70;84.30;;;;;;5038588;28;20034;-73
2022/05/05 10:35:12;;;;;;;8.40;3.30;;;14.80;84.60;;;;;;5021369;28;20373;-72
2022/05/05 10:37:39;;;;;;;4.68;2.63;;;14.80;83.40;;;;;;5015480;28;20449;-72
2022/05/05 10:40:09;;;;;;;6.53;2.78;;;14.70;84.10;;;;;;5016283;28;20113;-73
2022/05/05 10:42:41;;;;;;;6.13;3.00;;;14.80;84.70;;;;;;5036011;28;20443;-73
2022/05/05 10:45:13;;;;;;;10.07;3.13;;;14.90;85.50;;;;;;5018690;28;20037;-72
2022/05/05 10:48:06;;;;;;;7.15;2.70;;;14.90;84.60;;;;;;5015827;28;20092;-73
2022/05/05 10:50:39;;;;;;;5.05;2.50;;;15.00;83.80;;;;;;5037170;28;20030;-72
2022/05/05 10:53:07;;;;;;;9.30;2.95;;;15.10;83.20;;;;;;5019304;28;20034;-73
2022/05/05 10:55:45;;;;;;;6.25;3.83;;;15.10;84.50;;;;;;5031088;28;20544;-73
2022/05/05 10:58:12;;;;;;;4.50;3.00;;;15.10;83.20;;;;;;5036308;28;20086;-71
2022/05/05 11:00:42;;;;;;;6.38;3.10;;;15.20;84.00;;;;;;5016021;28;20029;-72
2022/05/05 11:03:14;;;;;;;7.20;3.10;;;15.30;85.10;;;;;;5018698;28;20384;-73
2022/05/05 11:05:40;;;;;;;7.90;3.20;;;15.40;83.90;;;;;;5021490;28;20029;-73
2022/05/05 11:08:09;;;;;;;5.53;2.30;;;15.90;83.70;;;;;;5015676;28;20104;-74
2022/05/05 11:10:46;;;;;;;4.30;1.92;;;16.50;80.70;;;;;;5035423;28;20099;-74
2022/05/05 11:13:34;;;;;;;6.85;2.00;;;18.00;83.30;;;;;;5011620;28;20033;-74
2022/05/05 11:22:15;;;;;;;4.38;2.10;;;24.00;60.00;;;;;;5034755;28;20404;-73
2022/05/05 11:24:45;;;;;;;4.38;1.48;;;25.70;53.00;;;;;;5013703;28;20033;-73
2022/05/05 11:27:16;;;;;;;3.43;1.13;;;27.20;50.10;;;;;;4995639;28;20025;-73
2022/05/05 11:29:53;;;;;;;4.28;1.70;;;28.70;46.40;;;;;;5031267;28;20275;-74
2022/05/05 11:32:20;;;;;;;5.10;1.98;;;29.90;42.30;;;;;;4996255;28;20444;-73
2022/05/05 11:34:48;;;;;;;2.67;1.52;;;30.60;41.80;;;;;;5032478;28;20039;-74
2022/05/05 11:37:14;;;;;;;3.75;1.63;;;31.00;40.80;;;;;;5039532;28;20025;-74
2022/05/05 11:39:40;;;;;;;3.47;1.83;;;30.80;38.90;;;;;;5009095;28;20033;-73
2022/05/05 11:42:10;;;;;;;4.15;2.17;;;30.90;40.00;;;;;;5009605;28;20441;-73
2022/05/05 11:44:39;;;;;;;3.22;1.65;;;31.00;38.40;;;;;;5013018;28;20025;-73
2022/05/05 11:47:14;;;;;;;4.75;2.67;;;30.30;38.70;;;;;;5028550;28;20061;-70
2022/05/05 11:49:46;;;;;;;6.05;2.40;;;29.20;36.00;;;;;;5012567;28;20056;-70
2022/05/05 11:52:23;;;;;;;4.50;2.17;;;28.50;37.70;;;;;;5010756;28;20485;-68
2022/05/05 11:54:52;;;;;;;5.75;2.03;;;28.10;39.10;;;;;;5028727;28;20045;-69
2022/05/05 11:57:38;;;;;;;3.55;1.90;;;27.20;40.70;;;;;;5022908;28;20101;-72
2022/05/05 12:02:55;;;;;;;5.07;1.90;;;26.20;42.00;;;;;;5030939;28;20022;-73
2022/05/05 12:05:22;;;;;;;3.42;1.55;;;25.80;42.80;;;;;;5013429;28;20404;-71
2022/05/05 12:07:50;;;;;;;5.63;1.88;;;25.90;43.10;;;;;;5012526;28;20025;-73
2022/05/05 12:10:17;;;;;;;4.63;1.80;;;25.80;42.10;;;;;;5013222;28;20033;-74
2022/05/05 12:12:48;;;;;;;3.58;1.92;;;26.10;43.10;;;;;;5025931;28;20033;-73
2022/05/05 12:15:14;;;;;;;;;;;26.50;42.90;;;;;;5016906;28;20037;-74
2022/05/05 12:17:52;;;;;;;5.20;2.80;;;26.70;42.10;;;;;;5009609;28;20641;-72
2022/05/05 12:20:21;;;;;;;5.65;2.03;;;27.10;42.80;;;;;;5018479;28;20188;-73
2022/05/05 12:22:58;;;;;;;3.70;2.05;;;27.20;42.00;;;;;;5014497;28;20033;-72
2022/05/05 12:25:25;;;;;;;6.97;2.42;;;27.30;41.40;;;;;;5015995;28;20029;-72
2022/05/05 12:28:00;;;;;;;5.95;2.72;;;27.20;41.10;;;;;;5015947;28;20035;-72
2022/05/05 12:30:29;;;;;;;2.60;1.63;;;27.20;41.00;;;;;;4999110;28;20501;-74
2022/05/05 12:32:58;;;;;;;3.58;2.53;;;27.30;41.40;;;;;;5028127;28;20389;-73
2022/05/05 12:35:41;;;;;;;6.60;2.90;;;27.60;40.40;;;;;;4997305;28;20099;-71
2022/05/05 12:38:09;;;;;;;7.13;2.75;;;27.90;40.00;;;;;;5050299;28;20093;-71
2022/05/05 12:40:37;;;;;;;6.72;2.90;;;28.20;38.80;;;;;;5038193;28;20045;-73
2022/05/05 12:43:06;;;;;;;4.05;1.95;;;27.80;39.10;;;;;;5012059;28;20056;-73
2022/05/05 12:45:33;;;;;;;4.25;2.00;;;27.30;39.70;;;;;;5031767;28;20037;-73
2022/05/05 12:48:01;;;;;;;7.15;2.00;;;27.00;40.20;;;;;;5030975;28;20056;-72
2022/05/05 12:50:34;;;;;;;5.63;2.60;;;26.60;40.20;;;;;;5018097;28;20029;-72
2022/05/05 13:01:44;;;;;;;5.65;2.38;;;26.50;40.80;;;;;;5034561;28;20073;-74
2022/05/05 13:04:17;;;;;;;4.07;3.17;;;26.40;40.10;;;;;;5036892;28;20025;-73
2022/05/05 13:06:48;;;;;;;6.60;2.70;;;25.50;39.40;;;;;;5036410;28;20033;-73
2022/05/05 13:09:14;;;;;;;5.57;2.53;;;25.20;41.20;;;;;;5036424;28;20068;-73
2022/05/05 13:11:44;;;;;;;6.55;2.78;;;25.10;41.80;;;;;;5036981;28;20032;-74
2022/05/05 13:14:12;;;;;;;5.27;1.80;;;24.80;42.00;;;;;;5012344;28;20046;-73
2022/05/05 13:16:37;;;;;;;4.25;2.63;;;24.40;43.00;;;;;;5013048;28;20034;-74
2022/05/05 13:19:06;;;;;;;5.72;2.60;;;24.30;43.60;;;;;;5012492;28;20025;-73
2022/05/05 13:21:33;;;;;;;7.03;2.55;;;24.20;43.50;;;;;;5027233;28;20409;-73
2022/05/05 13:23:59;;;;;;;5.10;2.95;;;23.80;44.10;;;;;;5028080;28;20119;-72
2022/05/05 13:26:25;;;;;;;4.65;2.00;;;23.70;44.50;;;;;;5028770;28;20059;-74
2022/05/05 13:28:52;;;;;;;5.55;2.72;;;24.20;45.10;;;;;;5026066;28;20603;-73
2022/05/05 13:31:18;;;;;;;6.60;3.17;;;24.90;44.00;;;;;;5014230;28;20041;-73
2022/05/05 13:33:44;;;;;;;5.63;2.20;;;25.50;43.00;;;;;;5025116;28;20040;-73
2022/05/05 13:36:11;;;;;;;8.00;3.70;;;26.50;43.00;;;;;;5012141;28;20056;-74
2022/05/05 13:38:37;;;;;;;6.50;3.65;;;27.10;41.10;;;;;;5011481;28;20120;-72
2022/05/05 13:41:03;;;;;;;7.00;3.08;;;28.50;39.70;;;;;;5011073;28;20465;-75
2022/05/05 13:43:29;;;;;;;6.85;2.80;;;29.30;38.90;;;;;;5010804;28;20116;-75